createdAt,value
2022-09-07T00:01:00.997Z,98503.66
2022-09-07T00:03:29.157Z,98502.22
2022-09-07T00:05:57.361Z,98493.81
2022-09-07T00:08:27.160Z,98501.84
2022-09-07T00:10:57.527Z,98504.59
2022-09-07T00:13:27.488Z,98499.34
2022-09-07T00:15:56.911Z,98496.53
2022-09-07T00:18:25.038Z,98492.50
2022-09-07T00:20:59.343Z,98489.28
2022-09-07T00:23:29.312Z,98481.72
2022-09-07T00:26:01.234Z,98483.31
2022-09-07T00:28:29.746Z,98474.59
2022-09-07T00:30:59.416Z,98478.50
2022-09-07T00:33:27.796Z,98478.84
2022-09-07T00:35:55.866Z,98478.78
2022-09-07T00:38:23.766Z,98474.03
2022-09-07T00:40:51.786Z,98464.34
2022-09-07T00:43:31.144Z,98465.16
2022-09-07T00:46:00.832Z,98450.13
2022-09-07T00:48:34.927Z,98446.97
2022-09-07T00:51:09.401Z,98443.75
2022-09-07T00:53:41.981Z,98442.88
2022-09-07T00:56:12.067Z,98440.66
2022-09-07T00:58:44.961Z,98438.31
2022-09-07T01:01:16.784Z,98429.19
2022-09-07T01:03:48.145Z,98427.16
2022-09-07T01:06:18.876Z,98436.09
2022-09-07T01:08:49.730Z,98425.00
2022-09-07T01:11:19.387Z,98429.75
2022-09-07T01:13:49.129Z,98426.03
2022-09-07T01:16:33.003Z,98424.72
2022-09-07T01:19:17.658Z,98419.00
2022-09-07T01:22:00.375Z,98419.69
2022-09-07T01:24:43.993Z,98425.94
2022-09-07T01:27:52.856Z,98428.97
2022-09-07T01:30:23.049Z,98439.25
2022-09-07T01:33:11.528Z,98440.84
2022-09-07T01:35:46.299Z,98442.06
2022-09-07T01:38:22.560Z,98444.16
2022-09-07T01:40:54.667Z,98446.28
2022-09-07T01:43:30.790Z,98455.13
2022-09-07T01:46:02.509Z,98443.78
2022-09-07T01:48:34.551Z,98449.31
2022-09-07T01:51:04.677Z,98454.50
2022-09-07T01:53:36.993Z,98460.00
2022-09-07T01:56:10.056Z,98461.38
2022-09-07T01:58:44.292Z,98464.84
2022-09-07T02:01:15.262Z,98458.47
2022-09-07T02:03:48.285Z,98461.94
2022-09-07T02:06:21.514Z,98457.84
2022-09-07T02:08:56.684Z,98461.97
2022-09-07T02:11:30.205Z,98464.09
2022-09-07T02:14:01.845Z,98470.22
2022-09-07T02:16:31.324Z,98467.53
2022-09-07T02:19:05.366Z,98482.78
2022-09-07T02:21:38.091Z,98483.75
2022-09-07T02:24:10.858Z,98517.44
2022-09-07T02:26:42.954Z,98514.84
2022-09-07T02:29:12.223Z,98529.78
2022-09-07T02:31:40.109Z,98529.59
2022-09-07T02:34:08.531Z,98532.34
2022-09-07T02:36:41.320Z,98538.16
2022-09-07T02:39:09.251Z,98539.16
2022-09-07T02:41:39.392Z,98551.75
2022-09-07T02:44:12.063Z,98544.63
2022-09-07T02:46:59.506Z,98544.41
2022-09-07T02:49:40.332Z,98536.63
2022-09-07T02:52:19.241Z,98544.75
2022-09-07T02:54:59.050Z,98552.16
2022-09-07T02:57:37.499Z,98543.56
2022-09-07T03:00:11.113Z,98530.44
2022-09-07T03:02:47.684Z,98531.19
2022-09-07T03:05:20.933Z,98526.84
2022-09-07T03:07:55.528Z,98525.81
2022-09-07T03:10:24.350Z,98521.31
2022-09-07T03:12:52.748Z,98524.38
2022-09-07T03:15:23.574Z,98522.97
2022-09-07T03:17:53.134Z,98521.66
2022-09-07T03:20:22.296Z,98526.63
2022-09-07T03:22:52.121Z,98513.53
2022-09-07T03:25:21.962Z,98516.53
2022-09-07T03:27:49.758Z,98534.78
2022-09-07T03:30:17.942Z,98526.16
2022-09-07T03:32:45.994Z,98514.31
2022-09-07T03:35:15.348Z,98506.94
2022-09-07T03:37:43.194Z,98509.97
2022-09-07T03:40:13.361Z,98522.69
2022-09-07T03:42:41.977Z,98521.78
2022-09-07T03:45:11.267Z,98514.44
2022-09-07T03:47:41.124Z,98520.00
2022-09-07T03:50:09.770Z,98520.03
2022-09-07T03:52:39.487Z,98521.81
2022-09-07T03:55:07.739Z,98532.00
2022-09-07T03:57:36.121Z,98525.44
2022-09-07T04:00:05.484Z,98518.78
2022-09-07T04:02:40.364Z,98522.13
2022-09-07T04:05:11.561Z,98523.16
2022-09-07T04:07:40.935Z,98517.81
2022-09-07T04:10:09.908Z,98514.22
2022-09-07T04:12:37.789Z,98517.88
2022-09-07T04:15:06.484Z,98519.34
2022-09-07T04:17:34.282Z,98522.88
2022-09-07T04:20:02.705Z,98525.50
2022-09-07T04:22:30.786Z,98525.63
2022-09-07T04:25:00.016Z,98535.06
2022-09-07T04:27:27.882Z,98533.25
2022-09-07T04:29:55.676Z,98525.75
2022-09-07T04:32:23.551Z,98525.31
2022-09-07T04:34:51.936Z,98527.09
2022-09-07T04:37:19.753Z,98530.84
2022-09-07T04:39:47.663Z,98530.88
2022-09-07T04:42:16.989Z,98536.31
2022-09-07T04:44:45.243Z,98530.19
2022-09-07T04:47:13.035Z,98529.25
2022-09-07T04:49:41.163Z,98530.00
2022-09-07T04:52:09.018Z,98535.28
2022-09-07T04:54:36.811Z,98524.75
2022-09-07T04:57:04.771Z,98524.38
2022-09-07T04:59:34.028Z,98520.16
2022-09-07T05:02:04.458Z,98515.63
2022-09-07T05:04:32.304Z,98522.75
2022-09-07T05:07:00.087Z,98525.16
2022-09-07T05:09:28.021Z,98531.44
2022-09-07T05:11:55.943Z,98539.19
2022-09-07T05:14:23.934Z,98529.69
2022-09-07T05:16:54.364Z,98529.13
2022-09-07T05:19:22.233Z,98540.09
2022-09-07T05:21:50.135Z,98538.69
2022-09-07T05:24:17.975Z,98537.34
2022-09-07T05:26:45.817Z,98547.16
2022-09-07T05:32:03.188Z,98556.84
2022-09-07T05:34:31.500Z,98555.72
2022-09-07T05:37:02.919Z,98551.34
2022-09-07T05:39:31.054Z,98548.31
2022-09-07T05:41:59.001Z,98552.25
2022-09-07T05:47:11.457Z,98565.16
2022-09-07T05:49:39.295Z,98572.72
2022-09-07T05:52:08.160Z,98576.63
2022-09-07T05:54:36.189Z,98580.50
2022-09-07T05:57:07.396Z,98585.25
2022-09-07T05:59:35.441Z,98582.69
2022-09-07T06:02:03.426Z,98576.78
2022-09-07T06:04:33.664Z,98574.50
2022-09-07T06:12:37.988Z,98562.47
2022-09-07T06:15:06.603Z,98567.31
2022-09-07T06:17:35.566Z,98564.28
2022-09-07T06:20:05.629Z,98580.19
2022-09-07T06:22:36.116Z,98582.13
2022-09-07T06:25:04.612Z,98575.75
2022-09-07T06:27:32.411Z,98578.16
2022-09-07T06:30:00.246Z,98582.03
2022-09-07T06:32:44.401Z,98586.13
2022-09-07T06:35:15.605Z,98579.22
2022-09-07T06:37:44.068Z,98575.16
2022-09-07T06:40:12.893Z,98570.13
2022-09-07T06:42:40.876Z,98565.66
2022-09-07T06:45:11.420Z,98569.41
2022-09-07T06:47:39.884Z,98560.03
2022-09-07T06:50:08.821Z,98567.69
2022-09-07T06:55:27.533Z,98564.41
2022-09-07T06:57:55.459Z,98567.25
2022-09-07T07:00:25.006Z,98569.56
2022-09-07T07:02:52.995Z,98559.69
2022-09-07T07:05:20.992Z,98563.00
2022-09-07T07:07:50.485Z,98567.88
2022-09-07T07:10:23.594Z,98559.34
2022-09-07T07:12:53.118Z,98553.00
2022-09-07T07:15:21.116Z,98558.97
2022-09-07T07:17:56.089Z,98556.09
2022-09-07T07:20:26.905Z,98563.94
2022-09-07T07:22:56.155Z,98564.31
2022-09-07T07:25:24.185Z,98566.72
2022-09-07T07:27:52.115Z,98563.13
2022-09-07T07:30:21.014Z,98571.25
2022-09-07T07:32:49.376Z,98587.00
2022-09-07T07:35:17.346Z,98592.06
2022-09-07T07:37:45.219Z,98591.00
2022-09-07T07:40:15.605Z,98596.59
2022-09-07T07:42:44.712Z,98594.59
2022-09-07T07:48:01.136Z,98605.06
2022-09-07T07:50:31.072Z,98613.84
2022-09-07T07:55:49.146Z,98615.25
2022-09-07T07:58:17.144Z,98621.75
2022-09-07T08:00:55.476Z,98622.41
2022-09-07T08:03:24.916Z,98620.81
2022-09-07T08:05:53.096Z,98621.88
2022-09-07T08:08:24.099Z,98620.81
2022-09-07T08:10:53.492Z,98629.69
2022-09-07T08:13:21.754Z,98629.69
2022-09-07T08:15:50.215Z,98637.00
2022-09-07T08:18:18.624Z,98637.16
2022-09-07T08:20:46.400Z,98622.78
2022-09-07T08:23:15.134Z,98639.66
2022-09-07T08:25:50.699Z,98636.78
2022-09-07T08:28:20.158Z,98637.66
2022-09-07T08:30:48.004Z,98643.72
2022-09-07T08:33:17.645Z,98632.72
2022-09-07T08:35:56.225Z,98632.25
2022-09-07T08:38:24.064Z,98633.22
2022-09-07T08:40:54.977Z,98630.47
2022-09-07T08:43:50.249Z,98629.34
2022-09-07T08:46:29.797Z,98634.69
2022-09-07T08:49:01.379Z,98636.91
2022-09-07T08:51:38.153Z,98631.47
2022-09-07T08:54:11.700Z,98628.78
2022-09-07T08:57:20.453Z,98625.69
2022-09-07T08:59:40.192Z,98632.72
2022-09-07T09:02:32.602Z,98640.97
2022-09-07T09:05:18.264Z,98630.84
2022-09-07T09:07:57.469Z,98629.34
2022-09-07T09:10:35.904Z,98630.75
2022-09-07T09:13:14.250Z,98634.94
2022-09-07T09:16:02.526Z,98632.50
2022-09-07T09:18:58.280Z,98626.53
2022-09-07T09:21:27.045Z,98633.41
2022-09-07T09:24:01.260Z,98622.28
2022-09-07T09:26:31.634Z,98619.72
2022-09-07T09:29:13.975Z,98615.47
2022-09-07T09:31:43.196Z,98611.00
2022-09-07T09:34:14.104Z,98618.06
2022-09-07T09:36:46.101Z,98614.59
2022-09-07T09:39:33.024Z,98616.22
2022-09-07T09:42:15.217Z,98611.16
2022-09-07T09:44:44.231Z,98613.09
2022-09-07T09:47:31.372Z,98607.72
2022-09-07T09:50:02.029Z,98601.97
2022-09-07T09:52:47.735Z,98597.16
2022-09-07T09:55:35.004Z,98591.00
2022-09-07T10:03:59.116Z,98585.88
2022-09-07T10:06:30.589Z,98578.81
2022-09-07T10:09:00.678Z,98586.75
2022-09-07T10:12:07.150Z,98576.59
2022-09-07T10:14:43.156Z,98581.09
2022-09-07T10:17:23.422Z,98572.19
2022-09-07T10:19:52.736Z,98568.56
2022-09-07T10:22:32.153Z,98574.00
2022-09-07T10:25:01.191Z,98569.19
2022-09-07T10:27:34.657Z,98565.44
2022-09-07T10:30:06.701Z,98565.69
2022-09-07T10:32:51.999Z,98555.91
2022-09-07T10:35:30.932Z,98549.88
2022-09-07T10:38:11.413Z,98551.72
2022-09-07T10:40:43.959Z,98553.56
2022-09-07T10:43:30.772Z,98545.16
2022-09-07T10:49:20.424Z,98531.88
2022-09-07T10:52:01.881Z,98539.59
2022-09-07T10:54:38.662Z,98531.69
2022-09-07T10:57:25.446Z,98541.75
2022-09-07T11:00:11.105Z,98546.72
2022-09-07T11:05:55.826Z,98532.38
2022-09-07T11:09:15.155Z,98526.28
2022-09-07T11:14:19.315Z,98515.69
2022-09-07T11:16:54.144Z,98510.63
2022-09-07T11:19:41.795Z,98513.09
2022-09-07T11:22:20.427Z,98506.16
2022-09-07T11:27:48.182Z,98503.50
2022-09-07T11:30:24.578Z,98503.88
2022-09-07T11:33:06.089Z,98504.06
2022-09-07T11:35:45.759Z,98502.31
2022-09-07T11:38:26.481Z,98501.66
2022-09-07T11:41:05.996Z,98504.84
2022-09-07T11:43:42.346Z,98494.13
2022-09-07T11:46:15.664Z,98495.50
2022-09-07T11:48:46.791Z,98489.63
2022-09-07T11:51:21.079Z,98480.97
2022-09-07T11:53:57.102Z,98483.13
2022-09-07T11:56:36.348Z,98482.44
2022-09-07T11:59:27.936Z,98487.63
2022-09-07T12:02:17.393Z,98469.88
2022-09-07T12:05:03.867Z,98473.59
2022-09-07T12:07:44.616Z,98482.81
2022-09-07T12:10:33.926Z,98470.22
2022-09-07T12:13:40.240Z,98477.88
2022-09-07T12:16:16.538Z,98467.00
2022-09-07T12:19:12.959Z,98470.16
2022-09-07T12:21:43.280Z,98472.66
2022-09-07T12:24:40.864Z,98471.91
2022-09-07T12:27:26.375Z,98463.00
2022-09-07T12:30:29.048Z,98470.47
2022-09-07T12:33:19.498Z,98468.81
2022-09-07T12:35:47.286Z,98466.19
2022-09-07T12:38:57.715Z,98451.69
2022-09-07T12:41:41.047Z,98456.91
2022-09-07T12:44:16.866Z,98460.59
2022-09-07T12:47:25.249Z,98454.53
2022-09-07T12:50:14.024Z,98452.97
2022-09-07T12:53:13.467Z,98448.44
2022-09-07T12:59:17.501Z,98455.53
2022-09-07T13:01:58.722Z,98446.66
2022-09-07T13:04:43.921Z,98456.34
2022-09-07T13:08:04.308Z,98452.28
2022-09-07T13:10:38.143Z,98444.28
2022-09-07T13:13:07.890Z,98437.78
2022-09-07T13:15:41.481Z,98433.38
2022-09-07T13:18:17.081Z,98430.41
2022-09-07T13:20:45.083Z,98435.63
2022-09-07T13:23:32.123Z,98431.19
2022-09-07T13:26:01.961Z,98424.31
2022-09-07T13:29:01.279Z,98420.94
2022-09-07T13:31:54.653Z,98409.91
2022-09-07T13:34:49.307Z,98418.13
2022-09-07T13:37:21.465Z,98419.25
2022-09-07T13:39:54.023Z,98406.38
2022-09-07T13:42:25.967Z,98403.97
2022-09-07T13:44:59.187Z,98410.19
2022-09-07T13:47:36.030Z,98408.03
2022-09-07T13:50:17.079Z,98411.44
2022-09-07T13:53:07.871Z,98402.69
2022-09-07T13:55:41.850Z,98390.91
2022-09-07T13:58:22.172Z,98398.84
2022-09-07T14:00:54.779Z,98404.34
2022-09-07T14:03:25.037Z,98394.94
2022-09-07T14:06:26.145Z,98395.56
2022-09-07T14:08:56.131Z,98388.97
2022-09-07T14:11:27.429Z,98400.88
2022-09-07T14:14:13.635Z,98392.59
2022-09-07T14:16:43.832Z,98387.84
2022-09-07T14:19:14.315Z,98389.25
2022-09-07T14:21:42.081Z,98385.34
2022-09-07T14:24:21.574Z,98390.44
2022-09-07T14:26:50.767Z,98382.00
2022-09-07T14:29:30.064Z,98387.38
2022-09-07T14:32:01.954Z,98386.53
2022-09-07T14:34:36.906Z,98390.59
2022-09-07T14:37:08.186Z,98382.22
2022-09-07T14:39:39.690Z,98378.13
2022-09-07T14:42:12.148Z,98373.19
2022-09-07T14:44:43.064Z,98381.19
2022-09-07T14:47:24.710Z,98378.69
2022-09-07T14:49:53.165Z,98368.38
2022-09-07T14:52:26.393Z,98374.25
2022-09-07T14:54:54.621Z,98363.88
2022-09-07T14:57:39.390Z,98380.28
2022-09-07T15:00:21.558Z,98371.59
2022-09-07T15:02:49.328Z,98366.28
2022-09-07T15:05:22.482Z,98368.44
2022-09-07T15:07:52.829Z,98373.63
2022-09-07T15:10:31.310Z,98361.97
2022-09-07T15:13:01.882Z,98354.78
2022-09-07T15:15:32.406Z,98357.00
2022-09-07T15:18:07.760Z,98352.16
2022-09-07T15:20:39.629Z,98353.63
2022-09-07T15:23:11.410Z,98347.91
2022-09-07T15:25:40.645Z,98348.66
2022-09-07T15:33:59.943Z,98336.78
2022-09-07T15:36:28.786Z,98339.69
2022-09-07T15:39:00.062Z,98336.13
2022-09-07T15:41:29.172Z,98327.00
2022-09-07T15:43:58.262Z,98332.69
2022-09-07T15:46:29.151Z,98333.25
2022-09-07T15:48:58.261Z,98334.53
2022-09-07T15:54:17.536Z,98346.97
2022-09-07T15:59:37.834Z,98337.34
2022-09-07T16:03:04.759Z,98334.53
2022-09-07T16:04:55.387Z,98326.28
2022-09-07T16:08:24.935Z,98326.50
2022-09-07T16:10:11.571Z,98321.84
2022-09-07T16:15:28.535Z,98312.53
2022-09-07T16:17:56.257Z,98312.03
2022-09-07T16:20:24.117Z,98315.63
2022-09-07T16:25:42.220Z,98315.31
2022-09-07T16:28:11.678Z,98313.78
2022-09-07T16:30:41.896Z,98316.94
2022-09-07T16:33:09.631Z,98326.44
2022-09-07T16:35:37.379Z,98317.38
2022-09-07T16:40:52.793Z,98324.22
2022-09-07T16:43:20.986Z,98326.31
2022-09-07T16:46:05.281Z,98322.34
2022-09-07T16:48:35.052Z,98314.59
2022-09-07T16:51:03.017Z,98319.91
2022-09-07T16:53:32.463Z,98325.81
2022-09-07T16:56:04.895Z,98316.50
2022-09-07T16:58:47.639Z,98310.91
2022-09-07T17:01:19.242Z,98309.44
2022-09-07T17:03:49.341Z,98319.75
2022-09-07T17:06:19.052Z,98310.50
2022-09-07T17:08:47.049Z,98315.75
2022-09-07T17:11:17.017Z,98318.84
2022-09-07T17:13:45.575Z,98318.13
2022-09-07T17:16:15.357Z,98311.94
2022-09-07T17:21:37.154Z,98308.16
2022-09-07T17:24:07.565Z,98314.50
2022-09-07T17:26:36.332Z,98306.38
2022-09-07T17:29:04.234Z,98305.22
2022-09-07T17:34:25.080Z,98298.63
2022-09-07T17:36:55.593Z,98301.31
2022-09-07T17:39:23.337Z,98297.94
2022-09-07T17:41:53.262Z,98308.50
2022-09-07T17:44:21.195Z,98326.72
2022-09-07T17:46:48.848Z,98336.84
2022-09-07T17:49:17.681Z,98342.69
2022-09-07T17:51:47.268Z,98342.00
2022-09-07T17:54:17.525Z,98341.88
2022-09-07T17:56:45.852Z,98347.28
2022-09-07T18:02:01.937Z,98361.28
2022-09-07T18:04:29.875Z,98373.00
2022-09-07T18:06:58.968Z,98388.84
2022-09-07T18:09:26.648Z,98386.19
2022-09-07T18:11:54.348Z,98391.50
2022-09-07T18:14:22.227Z,98390.81
2022-09-07T18:16:50.734Z,98389.22
2022-09-07T18:19:19.034Z,98393.94
2022-09-07T18:21:47.815Z,98381.06
2022-09-07T18:24:19.534Z,98370.72
2022-09-07T18:26:50.991Z,98360.06
2022-09-07T18:29:33.995Z,98329.53
2022-09-07T18:32:04.624Z,98318.44
2022-09-07T18:34:33.731Z,98311.19
2022-09-07T18:37:02.351Z,98297.50
2022-09-07T18:39:32.771Z,98315.03
2022-09-07T18:42:00.481Z,98349.28
2022-09-07T18:47:23.252Z,98348.94
2022-09-07T18:49:55.446Z,98357.44
2022-09-07T18:55:15.622Z,98359.38
2022-09-07T18:57:43.443Z,98352.28
2022-09-07T19:00:13.113Z,98348.41
2022-09-07T19:02:40.932Z,98350.47
2022-09-07T19:08:03.770Z,98352.31
2022-09-07T19:10:35.961Z,98343.78
2022-09-07T19:13:04.333Z,98347.22
2022-09-07T19:15:37.112Z,98345.19
2022-09-07T19:18:06.262Z,98343.94
2022-09-07T19:20:34.914Z,98339.50
2022-09-07T19:23:07.192Z,98333.59
2022-09-07T19:25:41.064Z,98336.19
2022-09-07T19:28:09.169Z,98331.47
2022-09-07T19:30:37.264Z,98334.78
2022-09-07T19:33:09.785Z,98337.19
2022-09-07T19:35:37.852Z,98331.69
2022-09-07T19:38:05.657Z,98330.75
2022-09-07T19:40:36.041Z,98323.09
2022-09-07T19:43:05.721Z,98319.81
2022-09-07T19:45:33.498Z,98320.25
2022-09-07T19:48:01.602Z,98322.00
2022-09-07T19:50:29.324Z,98316.78
2022-09-07T19:52:57.005Z,98326.25
2022-09-07T19:55:24.691Z,98321.75
2022-09-07T19:57:52.442Z,98336.47
2022-09-07T20:00:22.568Z,98329.50
2022-09-07T20:02:56.990Z,98335.25
2022-09-07T20:05:29.082Z,98319.63
2022-09-07T20:07:56.831Z,98313.38
2022-09-07T20:10:24.579Z,98297.78
2022-09-07T20:12:52.305Z,98294.13
2022-09-07T20:15:21.427Z,98292.81
2022-09-07T20:17:49.136Z,98300.50
2022-09-07T20:20:17.160Z,98291.91
2022-09-07T20:22:44.996Z,98281.44
2022-09-07T20:25:13.345Z,98276.56
2022-09-07T20:27:41.406Z,98276.75
2022-09-07T20:30:10.742Z,98269.44
2022-09-07T20:32:40.807Z,98263.75
2022-09-07T20:35:09.312Z,98269.97
2022-09-07T20:37:37.231Z,98260.75
2022-09-07T20:40:06.331Z,98249.22
2022-09-07T20:42:34.292Z,98240.72
2022-09-07T20:45:02.210Z,98243.75
2022-09-07T20:47:30.271Z,98231.53
2022-09-07T20:49:59.443Z,98227.28
2022-09-07T20:52:27.636Z,98225.34
2022-09-07T20:54:55.377Z,98225.00
2022-09-07T20:57:23.140Z,98219.53
2022-09-07T20:59:50.854Z,98222.16
2022-09-07T21:02:18.607Z,98221.84
2022-09-07T21:04:46.373Z,98230.22
2022-09-07T21:07:15.398Z,98239.94
2022-09-07T21:09:43.151Z,98244.63
2022-09-07T21:12:10.899Z,98246.75
2022-09-07T21:14:38.647Z,98239.50
2022-09-07T21:17:06.656Z,98238.84
2022-09-07T21:19:34.534Z,98236.91
2022-09-07T21:22:02.255Z,98251.97
2022-09-07T21:24:31.359Z,98259.75
2022-09-07T21:26:59.076Z,98264.31
2022-09-07T21:29:26.857Z,98262.06
2022-09-07T21:31:55.507Z,98255.25
2022-09-07T21:34:23.893Z,98274.47
2022-09-07T21:36:52.063Z,98273.19
2022-09-07T21:39:20.721Z,98281.53
2022-09-07T21:41:49.902Z,98282.09
2022-09-07T21:44:17.626Z,98277.75
2022-09-07T21:46:45.452Z,98271.16
2022-09-07T21:49:13.290Z,98278.84
2022-09-07T21:51:41.012Z,98261.44
2022-09-07T21:54:09.303Z,98267.69
2022-09-07T21:56:37.507Z,98258.31
2022-09-07T21:59:06.595Z,98256.19
2022-09-07T22:01:34.433Z,98259.59
2022-09-07T22:04:04.138Z,98253.56
2022-09-07T22:06:33.125Z,98255.25
2022-09-07T22:09:01.923Z,98246.66
2022-09-07T22:11:30.925Z,98246.09
2022-09-07T22:14:00.448Z,98236.94
2022-09-07T22:16:29.922Z,98242.34
2022-09-07T22:18:57.658Z,98247.59
2022-09-07T22:21:27.480Z,98251.25
2022-09-07T22:23:57.281Z,98250.53
2022-09-07T22:26:27.626Z,98258.75
2022-09-07T22:28:55.690Z,98247.13
2022-09-07T22:31:25.610Z,98244.66
2022-09-07T22:33:56.662Z,98232.25
2022-09-07T22:36:25.924Z,98231.28
2022-09-07T22:38:55.091Z,98221.88
2022-09-07T22:41:25.422Z,98224.66
2022-09-07T22:43:53.115Z,98218.66
2022-09-07T22:46:23.799Z,98197.56
2022-09-07T22:48:52.475Z,98190.13
2022-09-07T22:51:21.889Z,98200.66
2022-09-07T22:53:49.578Z,98194.66
2022-09-07T22:56:20.434Z,98187.53
2022-09-07T22:58:49.604Z,98181.16
2022-09-07T23:01:17.879Z,98201.09
2022-09-07T23:03:46.217Z,98194.44
2022-09-07T23:06:23.987Z,98191.69
2022-09-07T23:08:52.328Z,98191.91
2022-09-07T23:11:20.684Z,98191.03
2022-09-07T23:13:51.838Z,98190.56
2022-09-07T23:16:19.975Z,98187.13
2022-09-07T23:18:48.258Z,98169.00
2022-09-07T23:21:16.673Z,98173.00
2022-09-07T23:23:49.936Z,98174.13
2022-09-07T23:26:17.752Z,98171.31
2022-09-07T23:28:45.523Z,98167.84
2022-09-07T23:31:13.453Z,98168.03
2022-09-07T23:33:41.306Z,98175.94
2022-09-07T23:36:09.183Z,98177.56
2022-09-07T23:38:36.952Z,98174.38
2022-09-07T23:41:06.393Z,98170.88
2022-09-07T23:43:34.247Z,98175.13
2022-09-07T23:46:02.185Z,98164.78
2022-09-07T23:48:30.048Z,98161.03
2022-09-07T23:50:57.796Z,98153.38
2022-09-07T23:53:25.935Z,98150.50
2022-09-07T23:55:54.205Z,98153.50
2022-09-07T23:58:24.065Z,98153.00
